createdAt,value
2022-11-29T00:01:42.275Z,11.60
2022-11-29T00:04:12.665Z,12.10
2022-11-29T00:06:41.188Z,11.93
2022-11-29T00:09:15.562Z,12.43
2022-11-29T00:12:02.266Z,9.63
2022-11-29T00:14:31.206Z,11.70
2022-11-29T00:17:02.825Z,10.50
2022-11-29T00:19:32.930Z,12.50
2022-11-29T00:22:01.717Z,10.75
2022-11-29T00:24:31.739Z,10.57
2022-11-29T00:27:00.980Z,10.00
2022-11-29T00:29:30.343Z,12.80
2022-11-29T00:31:58.729Z,14.90
2022-11-29T00:34:27.461Z,11.25
2022-11-29T00:36:57.317Z,8.82
2022-11-29T00:39:25.993Z,12.07
2022-11-29T00:41:54.581Z,10.85
2022-11-29T00:44:22.879Z,12.35
2022-11-29T00:46:51.657Z,10.77
2022-11-29T00:49:19.915Z,11.70
2022-11-29T00:51:48.574Z,13.38
2022-11-29T00:54:19.356Z,12.73
2022-11-29T00:56:47.683Z,12.15
2022-11-29T00:59:16.058Z,11.93
2022-11-29T01:01:44.486Z,12.40
2022-11-29T01:04:13.008Z,11.77
2022-11-29T01:06:41.342Z,11.77
2022-11-29T01:09:09.829Z,11.80
2022-11-29T01:11:39.627Z,11.75
2022-11-29T01:14:08.123Z,10.57
2022-11-29T01:16:36.537Z,12.35
2022-11-29T01:19:07.393Z,12.55
2022-11-29T01:21:35.913Z,11.55
2022-11-29T01:24:04.424Z,11.73
2022-11-29T01:26:33.470Z,12.73
2022-11-29T01:29:03.221Z,13.10
2022-11-29T01:31:36.370Z,14.25
2022-11-29T01:34:06.537Z,12.85
2022-11-29T01:36:35.697Z,15.60
2022-11-29T01:39:05.917Z,15.27
2022-11-29T01:41:36.647Z,16.58
2022-11-29T01:44:27.940Z,14.75
2022-11-29T01:46:57.016Z,14.27
2022-11-29T01:49:29.389Z,19.42
2022-11-29T01:52:02.176Z,15.77
2022-11-29T01:54:31.984Z,15.70
2022-11-29T01:57:00.867Z,18.33
2022-11-29T01:59:31.520Z,17.33
2022-11-29T02:02:06.573Z,15.55
2022-11-29T02:04:36.912Z,14.75
2022-11-29T02:07:05.592Z,16.20
2022-11-29T02:09:33.874Z,17.13
2022-11-29T02:12:16.603Z,16.30
2022-11-29T02:15:07.300Z,14.95
2022-11-29T02:17:51.213Z,15.90
2022-11-29T02:20:58.571Z,16.85
2022-11-29T02:24:08.791Z,15.02
2022-11-29T02:27:00.614Z,16.52
2022-11-29T02:30:14.464Z,18.00
2022-11-29T02:33:20.714Z,18.30
2022-11-29T02:36:17.525Z,19.73
2022-11-29T02:39:15.631Z,12.57
2022-11-29T02:42:06.658Z,12.05
2022-11-29T02:45:04.421Z,13.45
2022-11-29T02:47:45.062Z,13.40
2022-11-29T02:50:34.295Z,12.27
2022-11-29T02:53:10.747Z,13.38
2022-11-29T02:55:47.883Z,13.48
2022-11-29T02:58:25.075Z,15.40
2022-11-29T03:01:00.906Z,13.88
2022-11-29T03:03:38.225Z,15.07
2022-11-29T03:06:18.136Z,15.32
2022-11-29T03:08:54.411Z,15.15
2022-11-29T03:11:34.050Z,13.52
2022-11-29T03:14:14.944Z,11.75
2022-11-29T03:16:48.327Z,12.95
2022-11-29T03:19:42.560Z,13.07
2022-11-29T03:22:20.410Z,16.33
2022-11-29T03:24:56.315Z,14.35
2022-11-29T03:27:30.073Z,15.07
2022-11-29T03:30:01.317Z,14.35
2022-11-29T03:32:36.809Z,17.35
2022-11-29T03:35:13.053Z,20.95
2022-11-29T03:37:55.430Z,15.32
2022-11-29T03:40:30.915Z,15.38
2022-11-29T03:43:05.497Z,16.42
2022-11-29T03:45:41.204Z,15.38
2022-11-29T03:48:13.904Z,16.10
2022-11-29T03:50:47.416Z,14.20
2022-11-29T03:53:25.098Z,14.80
2022-11-29T03:55:56.339Z,13.75
2022-11-29T03:58:43.308Z,12.10
2022-11-29T04:01:58.924Z,16.95
2022-11-29T04:05:06.548Z,15.13
2022-11-29T04:07:55.112Z,12.98
2022-11-29T04:10:46.566Z,13.85
2022-11-29T04:13:48.219Z,13.68
2022-11-29T04:16:37.383Z,13.13
2022-11-29T04:19:37.509Z,12.35
2022-11-29T04:22:35.849Z,14.18
2022-11-29T04:25:27.767Z,13.50
2022-11-29T04:28:19.571Z,14.80
2022-11-29T04:31:04.221Z,14.32
2022-11-29T04:33:59.713Z,13.77
2022-11-29T04:36:47.108Z,16.45
2022-11-29T04:39:32.292Z,15.00
2022-11-29T04:42:35.210Z,14.20
2022-11-29T04:45:37.337Z,14.73
2022-11-29T04:48:24.213Z,18.30
2022-11-29T04:53:35.635Z,15.82
2022-11-29T04:56:16.441Z,15.18
2022-11-29T04:58:55.165Z,13.93
2022-11-29T05:01:31.386Z,13.40
2022-11-29T05:04:06.271Z,13.50
2022-11-29T05:06:41.993Z,17.63
2022-11-29T05:09:22.438Z,14.38
2022-11-29T05:12:00.726Z,17.85
2022-11-29T05:14:52.934Z,18.45
2022-11-29T05:17:41.077Z,19.65
2022-11-29T05:20:24.312Z,24.73
2022-11-29T05:23:08.606Z,16.50
2022-11-29T05:25:45.285Z,18.23
2022-11-29T05:28:21.460Z,17.88
2022-11-29T05:31:15.038Z,16.77
2022-11-29T05:34:05.855Z,15.60
2022-11-29T05:36:41.651Z,15.45
2022-11-29T05:39:30.991Z,15.40
2022-11-29T05:42:23.806Z,16.27
2022-11-29T05:44:56.298Z,19.40
2022-11-29T05:47:31.753Z,18.42
2022-11-29T05:50:07.058Z,18.60
2022-11-29T05:52:50.802Z,16.50
2022-11-29T05:55:28.633Z,14.00
2022-11-29T05:58:00.406Z,16.45
2022-11-29T06:00:36.068Z,14.55
2022-11-29T06:03:16.128Z,15.93
2022-11-29T06:05:51.749Z,16.85
2022-11-29T06:08:26.100Z,17.02
2022-11-29T06:11:02.887Z,17.02
2022-11-29T06:13:43.922Z,17.98
2022-11-29T06:16:50.608Z,13.27
2022-11-29T06:19:49.204Z,16.17
2022-11-29T06:22:42.255Z,17.92
2022-11-29T06:25:47.190Z,16.50
2022-11-29T06:28:28.695Z,13.82
2022-11-29T06:31:04.636Z,15.43
2022-11-29T06:33:44.797Z,14.93
2022-11-29T06:36:19.322Z,14.65
2022-11-29T06:38:49.518Z,17.48
2022-11-29T06:41:21.616Z,18.58
2022-11-29T06:43:51.193Z,18.55
2022-11-29T06:46:29.030Z,16.85
2022-11-29T06:49:04.041Z,17.33
2022-11-29T06:51:40.772Z,15.98
2022-11-29T06:54:25.297Z,14.68
2022-11-29T06:57:00.424Z,16.27
2022-11-29T06:59:40.150Z,18.42
2022-11-29T07:02:22.374Z,15.95
2022-11-29T07:04:59.963Z,17.75
2022-11-29T07:07:28.902Z,17.90
2022-11-29T07:09:59.785Z,18.27
2022-11-29T07:12:28.708Z,15.63
2022-11-29T07:14:57.684Z,18.60
2022-11-29T07:17:32.197Z,16.50
2022-11-29T07:20:10.635Z,14.75
2022-11-29T07:22:57.009Z,15.65
2022-11-29T07:25:40.032Z,15.70
2022-11-29T07:28:20.550Z,16.63
2022-11-29T07:33:31.210Z,15.40
2022-11-29T07:36:12.464Z,15.90
2022-11-29T07:38:54.390Z,20.55
2022-11-29T07:41:32.110Z,18.50
2022-11-29T07:44:09.825Z,18.00
2022-11-29T07:46:38.568Z,19.48
2022-11-29T07:49:07.810Z,21.33
2022-11-29T07:51:36.242Z,21.33
2022-11-29T07:54:05.009Z,16.10
2022-11-29T07:56:34.721Z,20.33
2022-11-29T07:59:05.004Z,17.98
2022-11-29T08:01:36.480Z,18.45
2022-11-29T08:04:04.826Z,21.13
2022-11-29T08:06:33.449Z,20.65
2022-11-29T08:09:02.230Z,18.70
2022-11-29T08:11:30.840Z,21.58
2022-11-29T08:14:01.562Z,23.05
2022-11-29T08:16:30.240Z,20.70
2022-11-29T08:18:58.680Z,21.95
2022-11-29T08:21:27.017Z,24.92
2022-11-29T08:23:55.325Z,26.58
2022-11-29T08:26:28.242Z,30.45
2022-11-29T08:29:01.138Z,31.42
2022-11-29T08:31:29.546Z,28.58
2022-11-29T08:33:58.155Z,24.45
2022-11-29T08:36:26.415Z,27.35
2022-11-29T08:39:03.428Z,29.55
2022-11-29T08:41:35.961Z,30.15
2022-11-29T08:44:05.897Z,28.60
2022-11-29T08:46:48.109Z,30.65
2022-11-29T08:49:16.580Z,29.08
2022-11-29T08:51:44.856Z,29.40
2022-11-29T08:54:12.677Z,38.72
2022-11-29T08:59:30.526Z,27.88
2022-11-29T09:01:58.974Z,27.67
2022-11-29T09:04:27.389Z,25.58
2022-11-29T09:06:55.688Z,23.23
2022-11-29T09:09:24.024Z,26.88
2022-11-29T09:11:52.305Z,24.90
2022-11-29T09:14:22.441Z,25.52
2022-11-29T09:16:52.182Z,25.40
2022-11-29T09:19:20.660Z,23.95
2022-11-29T09:21:48.955Z,21.35
2022-11-29T09:24:17.346Z,21.30
2022-11-29T09:26:48.390Z,23.95
2022-11-29T09:29:18.805Z,23.08
2022-11-29T09:31:47.382Z,22.70
2022-11-29T09:34:18.587Z,22.48
2022-11-29T09:36:48.246Z,20.08
2022-11-29T09:39:16.563Z,22.48
2022-11-29T09:42:19.258Z,20.05
2022-11-29T09:44:57.499Z,19.60
2022-11-29T09:47:38.418Z,20.83
2022-11-29T09:50:29.412Z,23.15
2022-11-29T09:53:19.057Z,35.03
2022-11-29T09:55:58.718Z,24.33
2022-11-29T09:58:31.454Z,25.00
2022-11-29T10:01:04.847Z,30.75
2022-11-29T10:03:37.531Z,24.73
2022-11-29T10:06:10.597Z,29.17
2022-11-29T10:08:44.612Z,34.28
2022-11-29T10:11:22.924Z,20.80
2022-11-29T10:13:56.666Z,25.70
2022-11-29T10:16:33.655Z,20.90
2022-11-29T10:19:08.490Z,23.10
2022-11-29T10:21:43.525Z,24.13
2022-11-29T10:24:17.949Z,27.65
2022-11-29T10:26:46.292Z,23.25
2022-11-29T10:29:16.569Z,22.58
2022-11-29T10:31:49.547Z,28.38
2022-11-29T10:34:20.921Z,25.25
2022-11-29T10:36:53.561Z,25.50
2022-11-29T10:39:27.405Z,29.77
2022-11-29T10:41:58.524Z,26.90
2022-11-29T10:44:28.032Z,27.75
2022-11-29T10:46:57.802Z,28.55
2022-11-29T10:49:29.504Z,25.35
2022-11-29T10:51:59.366Z,26.05
2022-11-29T10:54:38.254Z,25.17
2022-11-29T10:57:15.003Z,24.75
2022-11-29T11:00:00.794Z,20.40
2022-11-29T11:02:29.786Z,22.50
2022-11-29T11:04:59.885Z,23.15
2022-11-29T11:07:35.268Z,19.92
2022-11-29T11:10:09.153Z,22.73
2022-11-29T11:12:38.155Z,24.77
2022-11-29T11:15:16.871Z,24.52
2022-11-29T11:17:58.217Z,25.42
2022-11-29T11:20:30.379Z,23.88
2022-11-29T11:23:03.826Z,22.60
2022-11-29T11:25:35.363Z,24.60
2022-11-29T11:28:18.397Z,26.90
2022-11-29T11:30:52.898Z,29.23
2022-11-29T11:33:25.457Z,26.92
2022-11-29T11:36:06.378Z,33.28
2022-11-29T11:38:37.820Z,34.72
2022-11-29T11:41:15.723Z,30.75
2022-11-29T11:43:44.806Z,28.25
2022-11-29T11:46:17.866Z,28.55
2022-11-29T11:48:46.856Z,32.17
2022-11-29T11:51:23.718Z,23.90
2022-11-29T11:53:57.352Z,27.70
2022-11-29T11:56:28.029Z,28.98
2022-11-29T11:58:59.166Z,24.70
2022-11-29T12:01:31.079Z,26.77
2022-11-29T12:04:04.773Z,26.33
2022-11-29T12:06:43.482Z,27.40
2022-11-29T12:09:21.131Z,29.73
2022-11-29T12:12:00.171Z,25.35
2022-11-29T12:14:38.169Z,27.25
2022-11-29T12:17:20.030Z,24.45
2022-11-29T12:20:01.338Z,31.13
2022-11-29T12:22:41.516Z,22.90
2022-11-29T12:25:18.842Z,30.60
2022-11-29T12:27:47.222Z,30.05
2022-11-29T12:30:16.476Z,25.40
2022-11-29T12:33:06.208Z,30.25
2022-11-29T12:35:58.785Z,31.17
2022-11-29T12:38:50.689Z,29.90
2022-11-29T12:41:34.199Z,26.27
2022-11-29T12:44:13.767Z,25.17
2022-11-29T12:46:54.392Z,25.58
2022-11-29T12:49:40.820Z,26.75
2022-11-29T12:52:17.149Z,26.05
2022-11-29T12:54:57.319Z,27.63
2022-11-29T12:57:36.395Z,28.17
2022-11-29T13:00:09.472Z,23.77
2022-11-29T13:03:03.592Z,25.00
2022-11-29T13:05:44.819Z,21.98
2022-11-29T13:08:31.400Z,22.92
2022-11-29T13:11:10.890Z,22.65
2022-11-29T13:13:44.001Z,21.10
2022-11-29T13:16:31.086Z,28.98
2022-11-29T13:19:07.454Z,24.33
2022-11-29T13:21:41.548Z,29.40
2022-11-29T13:26:41.866Z,28.70
2022-11-29T13:29:17.225Z,22.08
2022-11-29T13:31:47.085Z,21.95
2022-11-29T13:34:21.536Z,24.45
2022-11-29T13:37:01.744Z,22.15
2022-11-29T13:39:42.129Z,22.77
2022-11-29T13:42:18.578Z,24.05
2022-11-29T13:45:02.570Z,17.52
2022-11-29T13:47:31.787Z,18.92
2022-11-29T13:50:03.759Z,21.13
2022-11-29T13:52:41.318Z,20.58
2022-11-29T13:55:29.326Z,24.42
2022-11-29T13:58:22.735Z,22.17
2022-11-29T14:03:34.878Z,17.25
2022-11-29T14:06:12.379Z,25.33
2022-11-29T14:11:38.396Z,21.02
2022-11-29T14:14:10.690Z,21.92
2022-11-29T14:16:48.335Z,25.38
2022-11-29T14:19:28.796Z,19.35
2022-11-29T14:22:23.315Z,21.73
2022-11-29T14:25:50.611Z,21.55
2022-11-29T14:28:32.909Z,21.23
2022-11-29T14:33:46.588Z,26.85
2022-11-29T14:36:38.301Z,24.25
2022-11-29T14:39:24.035Z,23.45
2022-11-29T14:42:02.405Z,19.00
2022-11-29T14:44:33.534Z,23.48
2022-11-29T14:47:05.256Z,20.45
2022-11-29T14:49:43.327Z,25.00
2022-11-29T14:52:21.695Z,26.95
2022-11-29T14:55:00.796Z,25.13
2022-11-29T14:57:54.827Z,26.40
2022-11-29T15:00:29.704Z,27.40
2022-11-29T15:03:03.175Z,25.98
2022-11-29T15:05:36.091Z,29.90
2022-11-29T15:08:10.983Z,20.67
2022-11-29T15:10:43.392Z,20.73
2022-11-29T15:16:16.244Z,21.25
2022-11-29T15:19:03.219Z,25.08
2022-11-29T15:21:40.929Z,26.63
2022-11-29T15:24:13.256Z,27.15
2022-11-29T15:26:56.202Z,23.63
2022-11-29T15:29:25.502Z,24.83
2022-11-29T15:31:56.372Z,28.27
2022-11-29T15:34:32.672Z,20.23
2022-11-29T15:37:03.218Z,25.10
2022-11-29T15:39:36.868Z,23.85
2022-11-29T15:42:11.352Z,28.73
2022-11-29T15:44:46.384Z,21.98
2022-11-29T15:47:23.430Z,26.20
2022-11-29T15:49:52.326Z,20.63
2022-11-29T15:52:29.873Z,20.92
2022-11-29T15:55:02.239Z,20.67
2022-11-29T15:57:39.797Z,26.95
2022-11-29T16:00:10.580Z,22.80
2022-11-29T16:02:42.859Z,23.65
2022-11-29T16:05:17.751Z,21.20
2022-11-29T16:07:50.052Z,22.45
2022-11-29T16:10:22.156Z,22.63
2022-11-29T16:12:55.748Z,23.23
2022-11-29T16:15:30.869Z,34.40
2022-11-29T16:18:05.003Z,42.28
2022-11-29T16:23:13.021Z,27.73
2022-11-29T16:25:56.941Z,31.88
2022-11-29T16:28:34.555Z,28.95
2022-11-29T16:31:04.951Z,34.45
2022-11-29T16:33:34.255Z,32.13
2022-11-29T16:36:07.753Z,22.88
2022-11-29T16:38:38.608Z,22.80
2022-11-29T16:41:09.587Z,23.85
2022-11-29T16:43:53.561Z,21.08
2022-11-29T16:46:38.559Z,20.30
2022-11-29T16:49:40.191Z,21.55
2022-11-29T16:52:28.389Z,27.20
2022-11-29T16:54:58.769Z,21.80
2022-11-29T16:57:28.930Z,24.50
2022-11-29T16:59:57.410Z,24.92
2022-11-29T17:02:27.797Z,25.02
2022-11-29T17:04:58.620Z,21.77
2022-11-29T17:07:30.396Z,24.70
2022-11-29T17:10:01.400Z,23.17
2022-11-29T17:12:30.221Z,22.85
2022-11-29T17:14:58.828Z,25.25
2022-11-29T17:17:27.387Z,21.88
2022-11-29T17:19:56.072Z,25.88
2022-11-29T17:22:25.355Z,25.77
2022-11-29T17:24:54.425Z,23.95
2022-11-29T17:27:24.401Z,27.75
2022-11-29T17:29:52.901Z,29.55
2022-11-29T17:32:26.523Z,34.38
2022-11-29T17:37:23.576Z,35.92
2022-11-29T17:39:52.002Z,40.83
2022-11-29T17:42:29.971Z,36.25
2022-11-29T17:45:06.101Z,32.22
2022-11-29T17:47:35.210Z,31.60
2022-11-29T17:50:03.821Z,28.65
2022-11-29T17:52:33.103Z,32.22
2022-11-29T17:55:02.020Z,26.20
2022-11-29T17:57:33.004Z,27.40
2022-11-29T18:00:04.257Z,29.80
2022-11-29T18:02:36.575Z,26.48
2022-11-29T18:05:10.199Z,27.88
2022-11-29T18:07:59.259Z,31.60
2022-11-29T18:10:29.118Z,28.05
2022-11-29T18:12:58.199Z,25.23
2022-11-29T18:15:26.655Z,30.65
2022-11-29T18:17:56.722Z,29.38
2022-11-29T18:20:25.408Z,26.77
2022-11-29T18:22:56.727Z,25.70
2022-11-29T18:25:40.634Z,30.77
2022-11-29T18:28:11.584Z,32.50
2022-11-29T18:30:40.167Z,24.13
2022-11-29T18:33:09.932Z,28.08
2022-11-29T18:35:38.701Z,25.40
2022-11-29T18:38:15.279Z,30.15
2022-11-29T18:40:46.860Z,24.13
2022-11-29T18:43:17.922Z,26.73
2022-11-29T18:45:46.816Z,20.48
2022-11-29T18:48:16.628Z,23.42
2022-11-29T18:50:45.790Z,23.95
2022-11-29T18:53:14.680Z,22.15
2022-11-29T18:55:45.127Z,24.23
2022-11-29T18:58:13.625Z,24.98
2022-11-29T19:00:42.387Z,23.00
2022-11-29T19:03:10.951Z,22.58
2022-11-29T19:05:40.698Z,22.90
2022-11-29T19:08:09.043Z,24.60
2022-11-29T19:10:39.179Z,24.42
2022-11-29T19:13:07.864Z,23.83
2022-11-29T19:15:36.805Z,24.80
2022-11-29T19:18:07.901Z,25.35
2022-11-29T19:20:36.373Z,23.55
2022-11-29T19:23:06.929Z,21.73
2022-11-29T19:25:36.069Z,21.05
2022-11-29T19:28:06.848Z,23.73
2022-11-29T19:30:40.372Z,27.88
2022-11-29T19:33:08.817Z,19.77
2022-11-29T19:35:37.319Z,23.02
2022-11-29T19:38:07.061Z,24.98
2022-11-29T19:40:35.665Z,22.90
2022-11-29T19:43:04.835Z,23.92
2022-11-29T19:45:33.910Z,23.25
2022-11-29T19:48:02.489Z,25.23
2022-11-29T19:50:32.255Z,24.75
2022-11-29T19:53:00.638Z,25.15
2022-11-29T19:55:30.369Z,26.75
2022-11-29T19:57:59.064Z,26.50
2022-11-29T20:00:30.074Z,25.45
2022-11-29T20:02:58.457Z,30.88
2022-11-29T20:05:28.175Z,28.75
2022-11-29T20:08:01.521Z,33.88
2022-11-29T20:10:31.504Z,29.40
2022-11-29T20:13:01.277Z,22.42
2022-11-29T20:15:29.720Z,28.33
2022-11-29T20:17:58.088Z,26.23
2022-11-29T20:20:26.854Z,24.75
2022-11-29T20:22:55.281Z,28.45
2022-11-29T20:25:23.607Z,30.30
2022-11-29T20:27:53.916Z,34.10
2022-11-29T20:30:22.648Z,31.70
2022-11-29T20:32:51.491Z,32.42
2022-11-29T20:35:20.901Z,32.72
2022-11-29T20:38:09.418Z,33.65
2022-11-29T20:40:58.156Z,29.08
2022-11-29T20:43:40.053Z,28.48
2022-11-29T20:46:09.992Z,28.75
2022-11-29T20:48:39.229Z,30.60
2022-11-29T20:51:08.165Z,27.52
2022-11-29T20:53:38.703Z,33.40
2022-11-29T20:56:09.759Z,30.92
2022-11-29T20:58:40.021Z,30.42
2022-11-29T21:01:08.668Z,36.67
2022-11-29T21:03:37.315Z,31.48
2022-11-29T21:06:07.189Z,31.67
2022-11-29T21:08:37.322Z,29.73
2022-11-29T21:11:09.036Z,29.52
2022-11-29T21:13:39.595Z,34.45
2022-11-29T21:16:09.154Z,32.70
2022-11-29T21:18:38.194Z,28.02
2022-11-29T21:21:17.936Z,26.20
2022-11-29T21:24:04.597Z,34.20
2022-11-29T21:26:41.532Z,35.33
2022-11-29T21:29:17.575Z,42.45
2022-11-29T21:31:46.459Z,49.92
2022-11-29T21:34:14.844Z,45.65
2022-11-29T21:36:43.241Z,50.90
2022-11-29T21:39:16.283Z,44.10
2022-11-29T21:41:44.569Z,54.33
2022-11-29T21:44:14.226Z,57.42
2022-11-29T21:46:42.647Z,52.47
2022-11-29T21:49:11.087Z,70.80
2022-11-29T21:51:39.498Z,72.28
2022-11-29T21:54:07.849Z,79.32
2022-11-29T21:56:36.227Z,83.90
2022-11-29T21:59:04.524Z,71.90
2022-11-29T22:01:34.879Z,58.72
2022-11-29T22:04:04.280Z,58.13
2022-11-29T22:06:32.710Z,67.95
2022-11-29T22:09:01.408Z,69.50
2022-11-29T22:11:34.320Z,59.95
2022-11-29T22:14:18.329Z,61.60
2022-11-29T22:16:50.147Z,63.60
2022-11-29T22:19:20.723Z,58.65
2022-11-29T22:21:51.559Z,58.90
2022-11-29T22:24:21.886Z,55.88
2022-11-29T22:26:51.380Z,62.67
2022-11-29T22:29:20.841Z,65.00
2022-11-29T22:31:52.866Z,64.25
2022-11-29T22:34:21.806Z,75.40
2022-11-29T22:36:50.362Z,77.13
2022-11-29T22:39:18.664Z,88.53
2022-11-29T22:41:53.962Z,75.72
2022-11-29T22:44:23.286Z,70.60
2022-11-29T22:46:53.362Z,78.93
2022-11-29T22:49:21.828Z,65.35
2022-11-29T22:51:50.116Z,74.80
2022-11-29T22:54:18.644Z,73.97
2022-11-29T22:56:47.586Z,91.95
2022-11-29T22:59:15.983Z,90.82
2022-11-29T23:01:44.592Z,75.68
2022-11-29T23:04:14.446Z,59.45
2022-11-29T23:06:44.977Z,29.33
2022-11-29T23:09:16.883Z,28.88
2022-11-29T23:11:46.596Z,25.00
2022-11-29T23:14:15.011Z,30.75
2022-11-29T23:16:44.016Z,31.63
2022-11-29T23:19:12.881Z,34.30
2022-11-29T23:21:45.684Z,31.20
2022-11-29T23:24:15.140Z,34.75
2022-11-29T23:26:45.800Z,37.70
2022-11-29T23:29:16.059Z,40.00
2022-11-29T23:31:44.708Z,43.72
2022-11-29T23:34:13.366Z,42.78
2022-11-29T23:36:46.905Z,45.08
2022-11-29T23:39:18.028Z,42.47
2022-11-29T23:41:46.342Z,53.60
2022-11-29T23:44:14.685Z,52.97
2022-11-29T23:46:43.113Z,53.90
2022-11-29T23:49:11.455Z,50.25
2022-11-29T23:51:39.715Z,47.58
2022-11-29T23:54:09.607Z,48.50
2022-11-29T23:56:37.905Z,54.22
2022-11-29T23:59:06.396Z,60.08
